Time;durP1;ratioP1;P1;durP2;ratioP2;P2;SDS_P1;SDS_P2;PMS_P1;PMS_P2;Temp;Humidity;BMP_temperature;BMP_pressure;BME280_temperature;BME280_humidity;BME280_pressure;Samples;Min_cycle;Max_cycle;Signal;HPM_P1;HPM_P2
2023/08/11 00:04:47;;;;;;;4.40;4.10;;;18.80;99.50;;;;;;10385864;28;20210;-82
2023/08/11 00:09:50;;;;;;;4.30;4.00;;;18.80;99.10;;;;;;10411872;28;20227;-82
2023/08/11 00:14:53;;;;;;;4.03;3.73;;;18.70;99.20;;;;;;10413843;28;20639;-82
2023/08/11 00:19:55;;;;;;;4.30;4.00;;;18.70;99.30;;;;;;10414549;28;20226;-82
2023/08/11 00:24:58;;;;;;;4.13;3.83;;;18.70;99.30;;;;;;10408213;28;20290;-82
2023/08/11 00:30:01;;;;;;;4.93;3.83;;;18.70;98.90;;;;;;10425496;28;20237;-82
2023/08/11 00:35:05;;;;;;;4.93;4.40;;;18.70;99.00;;;;;;10409859;28;20643;-81
2023/08/11 00:40:11;;;;;;;4.10;3.80;;;18.60;99.40;;;;;;10416117;28;20249;-81
2023/08/11 00:45:13;;;;;;;4.23;3.90;;;18.60;99.90;;;;;;10412625;28;20222;-81
2023/08/11 00:50:17;;;;;;;4.40;4.10;;;18.60;99.90;;;;;;10398620;28;20230;-82
2023/08/11 00:55:21;;;;;;;4.30;4.00;;;18.60;99.70;;;;;;10393157;28;20647;-82
2023/08/11 01:00:24;;;;;;;4.67;4.20;;;18.60;99.60;;;;;;10395391;28;20278;-81
2023/08/11 01:05:31;;;;;;;4.83;4.50;;;18.50;99.60;;;;;;10384344;28;20202;-82
2023/08/11 01:10:42;;;;;;;5.00;4.60;;;18.50;99.50;;;;;;10421189;28;20819;-81
2023/08/11 01:15:52;;;;;;;4.40;4.10;;;18.40;99.50;;;;;;10401275;28;20596;-82
2023/08/11 01:20:59;;;;;;;4.80;4.50;;;18.30;99.60;;;;;;10393662;28;20250;-82
2023/08/11 01:26:02;;;;;;;5.53;5.07;;;18.30;99.90;;;;;;10413553;28;20210;-82
2023/08/11 01:31:04;;;;;;;4.40;4.00;;;18.30;99.90;;;;;;10382303;28;20249;-81
2023/08/11 01:36:08;;;;;;;4.60;4.30;;;18.20;99.80;;;;;;10421243;28;20223;-81
2023/08/11 01:41:12;;;;;;;4.77;4.23;;;18.20;99.90;;;;;;10399546;28;20234;-82
2023/08/11 01:46:14;;;;;;;4.20;3.90;;;18.20;99.90;;;;;;10375234;28;20191;-82
2023/08/11 01:51:17;;;;;;;4.00;3.67;;;18.10;99.90;;;;;;10393669;28;20305;-82
2023/08/11 01:56:21;;;;;;;4.57;4.17;;;18.10;99.90;;;;;;10387885;28;20241;-81
2023/08/11 02:01:23;;;;;;;4.30;4.03;;;18.10;99.90;;;;;;10400580;28;20698;-82
2023/08/11 02:06:25;;;;;;;4.77;4.30;;;18.00;99.90;;;;;;10399759;28;20207;-82
2023/08/11 02:11:29;;;;;;;5.70;5.17;;;18.00;99.90;;;;;;10398609;28;20596;-82
2023/08/11 02:16:31;;;;;;;4.37;4.07;;;18.00;99.90;;;;;;10368786;28;20253;-81
2023/08/11 02:21:37;;;;;;;4.33;4.00;;;17.90;99.90;;;;;;10401069;28;20281;-82
2023/08/11 02:26:40;;;;;;;4.60;4.30;;;17.90;99.90;;;;;;10389069;28;20219;-82
2023/08/11 02:31:43;;;;;;;4.73;4.37;;;17.90;99.90;;;;;;10380903;28;20679;-81
2023/08/11 02:36:47;;;;;;;5.20;4.90;;;17.90;99.90;;;;;;10391920;28;20226;-82
2023/08/11 02:41:50;;;;;;;4.80;4.50;;;17.90;99.90;;;;;;10402421;28;20223;-82
2023/08/11 02:46:53;;;;;;;5.10;4.70;;;17.80;99.90;;;;;;10393594;28;20218;-82
2023/08/11 02:51:55;;;;;;;5.73;5.10;;;17.80;99.90;;;;;;10373552;28;20389;-82
2023/08/11 02:56:59;;;;;;;5.17;4.77;;;17.80;99.90;;;;;;10389432;28;20644;-82
2023/08/11 03:02:01;;;;;;;4.57;4.30;;;17.80;99.90;;;;;;10366014;28;20749;-81
2023/08/11 03:07:05;;;;;;;5.40;5.00;;;17.70;99.90;;;;;;10373246;28;20203;-81
2023/08/11 03:12:10;;;;;;;5.73;5.10;;;17.70;99.90;;;;;;10368906;28;20569;-81
2023/08/11 03:17:13;;;;;;;6.07;5.60;;;17.70;99.90;;;;;;10396613;28;20223;-82
2023/08/11 03:22:17;;;;;;;5.10;4.70;;;17.70;99.90;;;;;;10389553;28;20203;-81
2023/08/11 03:27:21;;;;;;;6.00;5.50;;;17.60;99.90;;;;;;10383319;28;20205;-82
2023/08/11 03:32:23;;;;;;;5.40;5.00;;;17.60;99.90;;;;;;10383830;28;20673;-81
2023/08/11 03:37:29;;;;;;;5.30;4.13;;;17.60;99.90;;;;;;10396929;28;20739;-81
2023/08/11 03:42:32;;;;;;;5.10;4.70;;;17.50;99.90;;;;;;10399401;28;20230;-81
2023/08/11 03:47:35;;;;;;;5.50;5.10;;;17.50;99.90;;;;;;10359627;28;20572;-81
2023/08/11 03:52:38;;;;;;;5.83;5.20;;;17.40;99.90;;;;;;10376228;28;20203;-82
2023/08/11 03:57:41;;;;;;;5.43;5.13;;;17.40;99.90;;;;;;10390136;28;20227;-81
2023/08/11 04:02:48;;;;;;;5.90;5.50;;;17.40;99.90;;;;;;10376471;28;20293;-82
2023/08/11 04:07:53;;;;;;;6.10;5.60;;;17.40;99.90;;;;;;10430322;28;20225;-80
2023/08/11 04:12:56;;;;;;;5.73;5.33;;;17.40;99.90;;;;;;10454318;28;20235;-80
2023/08/11 04:18:00;;;;;;;5.40;5.10;;;17.40;99.90;;;;;;10469526;28;20222;-81
2023/08/11 04:23:02;;;;;;;5.13;4.73;;;17.40;99.90;;;;;;10399230;28;20207;-80
2023/08/11 04:28:06;;;;;;;5.70;5.30;;;17.40;99.90;;;;;;10388880;28;20229;-80
2023/08/11 04:33:08;;;;;;;5.00;4.70;;;17.40;99.90;;;;;;10403719;28;20203;-80
2023/08/11 04:38:12;;;;;;;4.87;4.57;;;17.40;99.90;;;;;;10441949;22;20252;-81
2023/08/11 04:43:19;;;;;;;5.00;4.70;;;17.40;99.90;;;;;;10418368;28;20264;-83
2023/08/11 04:48:21;;;;;;;5.30;5.00;;;17.40;99.90;;;;;;10385719;28;20664;-81
2023/08/11 04:53:27;;;;;;;5.27;4.90;;;17.40;99.90;;;;;;10414455;28;20195;-84
2023/08/11 04:58:33;;;;;;;4.97;4.67;;;17.50;99.90;;;;;;10417535;28;20223;-83
2023/08/11 05:03:35;;;;;;;4.90;4.60;;;17.50;99.90;;;;;;10393949;28;20207;-82
2023/08/11 05:08:37;;;;;;;5.67;5.20;;;17.50;99.90;;;;;;10406315;28;20354;-83
2023/08/11 05:13:41;;;;;;;6.30;5.90;;;17.50;99.90;;;;;;10435245;28;20270;-83
2023/08/11 05:18:43;;;;;;;6.60;6.00;;;17.50;99.90;;;;;;10398933;28;20254;-83
2023/08/11 05:23:45;;;;;;;7.00;6.30;;;17.40;99.90;;;;;;10392365;28;20198;-84
2023/08/11 05:28:48;;;;;;;5.70;5.20;;;17.30;99.90;;;;;;10415256;28;20226;-83
2023/08/11 05:33:52;;;;;;;6.23;5.83;;;17.30;99.90;;;;;;10385925;28;20203;-84
2023/08/11 05:38:54;;;;;;;4.90;4.60;;;17.30;99.90;;;;;;10412532;28;20245;-83
2023/08/11 05:43:57;;;;;;;5.57;5.20;;;17.40;99.90;;;;;;10425118;28;20203;-82
2023/08/11 05:48:59;;;;;;;5.70;5.27;;;17.40;99.90;;;;;;10425234;28;20229;-84
2023/08/11 05:54:01;;;;;;;8.37;5.17;;;17.50;99.90;;;;;;10426437;28;20234;-84
2023/08/11 05:59:05;;;;;;;5.63;5.23;;;17.70;99.90;;;;;;10426176;28;20309;-84
2023/08/11 06:04:07;;;;;;;5.60;5.20;;;17.80;99.90;;;;;;10423676;28;20224;-84
2023/08/11 06:09:09;;;;;;;5.90;5.40;;;17.90;99.90;;;;;;10418573;28;20270;-84
2023/08/11 06:14:12;;;;;;;5.97;5.37;;;18.00;99.90;;;;;;10390564;28;20576;-83
2023/08/11 06:19:16;;;;;;;6.40;5.67;;;18.10;99.90;;;;;;10400987;28;20288;-85
2023/08/11 06:24:20;;;;;;;5.30;4.90;;;18.20;99.90;;;;;;10425560;28;20230;-84
2023/08/11 06:29:23;;;;;;;5.73;5.23;;;18.30;99.90;;;;;;10373851;28;20242;-84
2023/08/11 06:34:25;;;;;;;5.77;5.37;;;18.40;99.90;;;;;;10422429;28;20202;-84
2023/08/11 06:39:27;;;;;;;9.20;5.90;;;18.50;99.90;;;;;;10417310;28;20610;-84
2023/08/11 06:44:30;;;;;;;6.10;5.60;;;18.60;99.90;;;;;;10388084;28;20245;-84
2023/08/11 06:49:32;;;;;;;5.43;4.93;;;18.70;99.90;;;;;;10420331;28;20211;-84
2023/08/11 06:54:35;;;;;;;5.87;5.37;;;18.80;99.90;;;;;;10387958;28;20273;-84
2023/08/11 06:59:38;;;;;;;5.70;5.27;;;19.00;99.90;;;;;;10391716;28;20246;-85
2023/08/11 07:04:40;;;;;;;5.60;5.13;;;19.10;99.90;;;;;;10422642;28;20195;-84
2023/08/11 07:09:42;;;;;;;6.23;5.67;;;19.20;99.90;;;;;;10423165;28;20276;-84
2023/08/11 07:14:46;;;;;;;5.47;5.07;;;19.30;99.90;;;;;;10413295;28;20639;-84
2023/08/11 07:19:48;;;;;;;5.10;4.70;;;19.40;99.90;;;;;;10418038;28;20705;-84
2023/08/11 07:24:50;;;;;;;5.90;5.50;;;19.50;99.90;;;;;;10369711;28;20218;-84
2023/08/11 07:29:53;;;;;;;6.93;6.20;;;19.70;99.90;;;;;;10389905;28;20235;-84
2023/08/11 07:34:55;;;;;;;6.03;5.53;;;19.80;99.90;;;;;;10410191;28;20231;-84
2023/08/11 07:39:57;;;;;;;6.50;5.90;;;20.20;99.90;;;;;;10422153;28;20626;-84
2023/08/11 07:45:01;;;;;;;7.53;6.70;;;20.60;99.90;;;;;;10412677;28;20187;-84
2023/08/11 07:50:03;;;;;;;6.47;5.93;;;21.10;99.90;;;;;;10401608;28;20346;-83
2023/08/11 07:55:06;;;;;;;6.70;5.00;;;21.50;99.90;;;;;;10403985;28;20629;-83
2023/08/11 08:00:16;;;;;;;7.00;5.60;;;21.90;99.90;;;;;;10395012;28;20234;-83
2023/08/11 08:05:19;;;;;;;8.00;4.70;;;22.30;99.90;;;;;;10390551;28;20195;-84
2023/08/11 08:10:21;;;;;;;7.10;5.67;;;22.60;99.90;;;;;;10381828;28;20489;-84
2023/08/11 08:15:28;;;;;;;4.17;3.87;;;22.90;99.90;;;;;;10407135;28;20233;-84
2023/08/11 08:20:31;;;;;;;5.83;4.57;;;23.20;99.90;;;;;;10375535;28;20223;-84
2023/08/11 08:25:33;;;;;;;4.90;4.20;;;23.50;99.90;;;;;;10396637;28;20277;-84
2023/08/11 08:30:36;;;;;;;4.53;4.13;;;23.70;99.90;;;;;;10409937;28;20266;-84
2023/08/11 08:35:39;;;;;;;5.53;5.03;;;24.10;99.90;;;;;;10419081;28;20218;-84
2023/08/11 08:40:41;;;;;;;6.57;5.93;;;24.70;99.80;;;;;;10419361;28;20227;-85
2023/08/11 08:45:45;;;;;;;5.60;4.80;;;25.10;99.30;;;;;;10396315;28;20270;-83
2023/08/11 08:50:47;;;;;;;5.53;4.17;;;25.50;98.70;;;;;;10381549;28;20218;-84
2023/08/11 08:55:50;;;;;;;9.50;4.60;;;25.90;98.00;;;;;;10409419;28;20266;-84
2023/08/11 09:00:53;;;;;;;4.50;4.20;;;26.00;97.50;;;;;;10401946;28;20231;-84
2023/08/11 09:05:55;;;;;;;5.57;4.50;;;26.10;97.20;;;;;;10411218;28;20261;-84
2023/08/11 09:10:57;;;;;;;4.93;4.40;;;25.90;96.90;;;;;;10427189;28;20599;-83
2023/08/11 09:16:01;;;;;;;4.67;4.00;;;25.70;96.90;;;;;;10404699;28;20280;-83
2023/08/11 09:21:03;;;;;;;4.43;4.13;;;25.50;97.00;;;;;;10385753;28;20274;-84
2023/08/11 09:26:06;;;;;;;5.00;4.57;;;25.40;96.80;;;;;;10413773;28;20194;-84
2023/08/11 09:31:09;;;;;;;4.47;4.17;;;25.40;96.70;;;;;;10389890;28;20226;-84
2023/08/11 09:36:12;;;;;;;7.67;4.47;;;25.60;96.70;;;;;;10413583;28;20647;-84
2023/08/11 09:41:14;;;;;;;5.30;4.30;;;25.90;96.30;;;;;;10426947;28;20622;-84
2023/08/11 09:46:18;;;;;;;4.30;3.90;;;26.40;95.90;;;;;;10407920;28;20206;-84
2023/08/11 09:51:20;;;;;;;4.83;4.43;;;26.80;95.30;;;;;;10429475;28;20219;-84
2023/08/11 09:56:23;;;;;;;4.60;4.20;;;27.20;92.90;;;;;;10409817;28;20226;-84
2023/08/11 10:01:30;;;;;;;4.83;4.43;;;27.60;93.90;;;;;;10389968;28;20238;-84
2023/08/11 10:06:33;;;;;;;5.20;4.50;;;28.00;93.10;;;;;;10412268;28;20214;-85
2023/08/11 10:11:36;;;;;;;5.13;4.73;;;28.30;92.60;;;;;;10389512;28;20251;-84
2023/08/11 10:16:42;;;;;;;4.33;3.93;;;28.60;90.40;;;;;;10399829;28;20219;-84
2023/08/11 10:21:44;;;;;;;5.10;4.60;;;28.90;91.70;;;;;;10427326;28;20223;-83
2023/08/11 10:26:47;;;;;;;4.23;3.90;;;28.90;91.20;;;;;;10402290;28;20254;-84
2023/08/11 10:32:00;;;;;;;4.40;4.10;;;28.50;90.40;;;;;;10419313;28;20242;-84
2023/08/11 10:37:02;;;;;;;4.23;3.83;;;28.10;90.70;;;;;;10412506;28;20231;-83
2023/08/11 10:42:04;;;;;;;4.47;4.07;;;27.60;91.70;;;;;;10525162;22;20308;-82
2023/08/11 10:47:08;;;;;;;3.77;3.57;;;27.20;91.80;;;;;;10521013;28;20254;-82
2023/08/11 10:52:12;;;;;;;8.40;7.60;;;26.80;92.50;;;;;;10501805;28;20255;-81
2023/08/11 10:57:14;;;;;;;5.07;4.53;;;26.50;92.60;;;;;;10532107;28;20277;-82
2023/08/11 11:02:20;;;;;;;4.33;3.93;;;26.20;92.30;;;;;;10524890;28;20220;-82
2023/08/11 11:07:23;;;;;;;5.50;5.10;;;26.00;92.80;;;;;;10497514;28;20292;-83
2023/08/11 11:12:27;;;;;;;4.63;4.23;;;25.80;93.00;;;;;;10534576;28;20239;-82
2023/08/11 11:17:30;;;;;;;4.20;3.90;;;25.70;93.80;;;;;;10533640;28;20224;-81
2023/08/11 11:22:32;;;;;;;4.40;4.10;;;25.60;93.70;;;;;;10507993;28;20251;-82
2023/08/11 11:27:41;;;;;;;4.57;4.17;;;25.50;93.90;;;;;;10529884;28;20203;-83
2023/08/11 11:32:46;;;;;;;4.30;3.90;;;25.30;94.00;;;;;;10536804;28;20220;-82
2023/08/11 11:37:48;;;;;;;4.80;4.50;;;25.20;94.60;;;;;;10514216;28;20275;-83
2023/08/11 11:42:50;;;;;;;6.53;4.20;;;25.10;94.50;;;;;;10532015;28;20443;-82
2023/08/11 11:47:54;;;;;;;4.87;4.47;;;25.10;94.50;;;;;;10519589;28;20300;-82
2023/08/11 11:52:57;;;;;;;4.20;3.90;;;25.10;94.50;;;;;;10509233;28;20287;-82
2023/08/11 11:57:59;;;;;;;4.80;4.50;;;25.10;94.50;;;;;;10504956;28;20237;-82
2023/08/11 12:03:03;;;;;;;5.07;4.67;;;25.00;94.50;;;;;;10491599;28;20225;-83
2023/08/11 12:08:19;;;;;;;5.97;4.97;;;25.00;95.10;;;;;;10504975;28;20204;-82
2023/08/11 12:13:21;;;;;;;4.57;4.27;;;25.00;94.90;;;;;;10465809;28;20271;-82
2023/08/11 12:18:24;;;;;;;4.40;4.10;;;25.00;94.30;;;;;;10494715;28;20225;-83
2023/08/11 12:23:27;;;;;;;5.97;4.97;;;25.10;94.50;;;;;;10517312;28;20223;-82
2023/08/11 12:28:29;;;;;;;6.33;5.00;;;25.10;94.50;;;;;;10506884;28;20202;-82
2023/08/11 12:33:33;;;;;;;4.80;4.33;;;25.10;94.50;;;;;;10501718;28;20205;-83
2023/08/11 12:38:35;;;;;;;4.50;4.20;;;25.10;94.30;;;;;;10491199;28;20291;-83
2023/08/11 12:43:37;;;;;;;4.67;4.37;;;25.00;94.60;;;;;;10562311;28;20209;-83
2023/08/11 12:48:41;;;;;;;4.87;4.57;;;25.00;94.90;;;;;;10569368;28;20254;-81
2023/08/11 12:53:43;;;;;;;5.43;5.03;;;25.00;94.60;;;;;;10561428;28;20206;-81
2023/08/11 12:58:45;;;;;;;4.50;4.10;;;25.00;94.80;;;;;;10533247;28;20585;-83
2023/08/11 13:03:51;;;;;;;5.00;4.60;;;25.00;95.00;;;;;;10477235;28;20563;-83
2023/08/11 13:08:53;;;;;;;4.40;4.03;;;24.90;94.80;;;;;;10481333;28;20214;-83
2023/08/11 13:13:55;;;;;;;4.80;4.37;;;24.90;94.90;;;;;;10496488;28;20271;-83
2023/08/11 13:18:59;;;;;;;4.77;4.47;;;24.80;95.30;;;;;;10508632;28;20233;-83
2023/08/11 13:24:01;;;;;;;3.63;3.33;;;25.00;94.70;;;;;;10507426;28;20229;-82
2023/08/11 13:29:03;;;;;;;5.23;4.83;;;25.00;94.70;;;;;;10499890;28;20707;-81
2023/08/11 13:34:07;;;;;;;5.50;4.90;;;25.00;95.10;;;;;;10458255;28;20548;-82
2023/08/11 13:39:09;;;;;;;5.73;3.80;;;25.00;95.10;;;;;;10510840;28;20711;-82
2023/08/11 13:44:12;;;;;;;6.70;4.23;;;25.10;94.40;;;;;;10514668;28;20236;-82
2023/08/11 13:49:15;;;;;;;3.93;3.60;;;25.20;94.70;;;;;;10509624;28;20219;-82
2023/08/11 13:54:17;;;;;;;5.13;4.70;;;25.20;94.60;;;;;;10511972;28;20519;-83
2023/08/11 13:59:19;;;;;;;4.57;4.27;;;25.20;95.50;;;;;;10505357;28;20743;-82
2023/08/11 14:04:23;;;;;;;4.23;3.97;;;25.20;94.90;;;;;;10527515;28;20287;-83
2023/08/11 14:09:25;;;;;;;5.57;5.00;;;25.30;94.80;;;;;;10499189;28;20259;-83
2023/08/11 14:14:27;;;;;;;4.70;4.30;;;25.40;94.60;;;;;;10523285;28;20631;-81
2023/08/11 14:19:31;;;;;;;4.23;3.93;;;25.50;94.10;;;;;;10528158;28;20277;-81
2023/08/11 14:24:33;;;;;;;4.80;4.50;;;25.60;93.40;;;;;;10522886;28;20207;-81
2023/08/11 14:29:35;;;;;;;4.10;3.70;;;25.70;94.20;;;;;;10496252;28;20221;-82
2023/08/11 14:34:38;;;;;;;4.67;4.17;;;25.60;95.10;;;;;;10524844;28;20782;-83
2023/08/11 14:39:40;;;;;;;4.60;4.20;;;25.50;94.50;;;;;;10491810;28;20290;-83
2023/08/11 14:44:42;;;;;;;7.67;4.83;;;25.50;93.90;;;;;;10489952;28;20201;-83
2023/08/11 14:49:46;;;;;;;4.70;4.40;;;25.60;94.40;;;;;;10516798;28;20271;-82
2023/08/11 14:54:48;;;;;;;4.90;4.60;;;25.60;94.00;;;;;;10525172;28;20219;-82
2023/08/11 14:59:50;;;;;;;4.50;4.20;;;25.70;94.10;;;;;;10505438;28;20645;-81
2023/08/11 15:04:54;;;;;;;4.93;4.50;;;25.80;93.60;;;;;;10482762;28;20250;-81
2023/08/11 15:09:56;;;;;;;4.30;4.00;;;25.80;93.60;;;;;;10484387;28;20319;-81
2023/08/11 15:14:58;;;;;;;5.33;4.83;;;25.80;93.80;;;;;;10483290;28;20201;-82
2023/08/11 15:20:02;;;;;;;5.10;4.70;;;25.70;94.00;;;;;;10513132;28;20724;-81
2023/08/11 15:25:06;;;;;;;4.10;3.80;;;25.70;93.40;;;;;;10500132;28;20193;-82
2023/08/11 15:30:09;;;;;;;4.40;4.10;;;25.80;94.10;;;;;;10497425;28;20253;-82
2023/08/11 15:35:12;;;;;;;4.70;4.40;;;25.70;94.50;;;;;;10458577;28;20212;-81
2023/08/11 15:40:15;;;;;;;5.20;4.70;;;25.60;94.90;;;;;;10513445;28;20286;-81
2023/08/11 15:45:17;;;;;;;4.57;4.27;;;25.50;94.30;;;;;;10530170;28;20577;-81
2023/08/11 15:50:21;;;;;;;4.73;4.40;;;25.60;94.00;;;;;;10498096;28;20210;-81
2023/08/11 15:55:23;;;;;;;4.33;4.03;;;25.60;94.20;;;;;;10495372;28;20200;-81
2023/08/11 16:00:25;;;;;;;4.07;3.77;;;25.60;93.80;;;;;;10500116;28;20221;-81
2023/08/11 16:05:28;;;;;;;4.40;3.80;;;25.70;93.50;;;;;;10501339;28;20208;-82
2023/08/11 16:10:32;;;;;;;4.63;4.23;;;25.80;93.90;;;;;;10482697;28;20263;-81
2023/08/11 16:15:36;;;;;;;4.83;4.50;;;25.80;93.30;;;;;;10518831;28;20330;-82
2023/08/11 16:20:39;;;;;;;4.13;3.83;;;25.80;93.30;;;;;;10519698;28;20228;-81
2023/08/11 16:25:41;;;;;;;3.90;3.60;;;25.80;93.30;;;;;;10538588;28;20667;-81
2023/08/11 16:30:44;;;;;;;4.50;4.10;;;25.80;93.40;;;;;;10496236;28;20599;-81
2023/08/11 16:35:48;;;;;;;3.93;3.67;;;25.80;93.70;;;;;;10517840;28;20199;-81
2023/08/11 16:40:51;;;;;;;4.40;4.00;;;25.80;93.80;;;;;;10519211;22;20241;-83
2023/08/11 16:45:53;;;;;;;3.70;3.50;;;25.70;94.10;;;;;;10410979;28;20294;-84
2023/08/11 16:50:56;;;;;;;4.17;3.87;;;25.60;93.90;;;;;;10404210;28;20222;-83
2023/08/11 16:55:58;;;;;;;4.87;4.47;;;25.60;93.70;;;;;;10415623;28;20202;-83
2023/08/11 17:01:00;;;;;;;7.90;3.43;;;25.60;93.50;;;;;;10411988;28;20234;-84
2023/08/11 17:06:04;;;;;;;4.40;4.10;;;25.60;94.00;;;;;;10404916;28;20234;-84
2023/08/11 17:11:06;;;;;;;3.97;3.67;;;25.70;93.30;;;;;;10414236;28;20245;-83
2023/08/11 17:16:08;;;;;;;4.10;3.73;;;25.70;93.40;;;;;;10399620;28;20671;-83
2023/08/11 17:21:12;;;;;;;4.40;4.00;;;25.70;93.20;;;;;;10402167;28;20226;-84
2023/08/11 17:26:15;;;;;;;4.23;3.93;;;25.70;93.30;;;;;;10412217;28;20266;-83
2023/08/11 17:31:17;;;;;;;3.87;3.57;;;25.60;93.50;;;;;;10425707;28;20338;-83
2023/08/11 17:36:25;;;;;;;3.93;3.73;;;25.60;94.10;;;;;;10424366;28;20202;-84
2023/08/11 17:41:27;;;;;;;4.00;3.80;;;25.50;93.70;;;;;;10413828;28;20234;-84
2023/08/11 17:46:29;;;;;;;3.80;3.50;;;25.50;94.10;;;;;;10393195;28;20213;-84
2023/08/11 17:51:33;;;;;;;4.50;4.10;;;25.30;95.20;;;;;;10383605;28;20231;-84
2023/08/11 17:56:35;;;;;;;4.20;3.90;;;25.10;95.30;;;;;;10436463;28;20218;-83
2023/08/11 18:01:37;;;;;;;4.43;4.13;;;25.00;95.90;;;;;;10415073;28;20228;-83
2023/08/11 18:06:41;;;;;;;4.17;3.83;;;24.80;96.50;;;;;;10400693;28;20242;-83
2023/08/11 18:11:43;;;;;;;4.37;4.07;;;24.70;96.10;;;;;;10408825;28;20223;-82
2023/08/11 18:16:45;;;;;;;4.27;3.97;;;24.60;96.90;;;;;;10371311;28;20290;-83
2023/08/11 18:21:48;;;;;;;4.23;3.93;;;24.50;96.70;;;;;;10402754;28;20741;-82
2023/08/11 18:26:50;;;;;;;4.33;3.90;;;24.40;97.10;;;;;;10403226;28;20190;-83
2023/08/11 18:31:52;;;;;;;4.10;3.80;;;24.50;97.30;;;;;;10413198;28;20222;-83
2023/08/11 18:36:56;;;;;;;4.37;4.07;;;24.60;97.50;;;;;;10412772;28;20199;-84
2023/08/11 18:41:58;;;;;;;4.70;4.40;;;24.70;97.40;;;;;;10384603;28;20653;-83
2023/08/11 18:47:08;;;;;;;4.40;4.20;;;24.80;97.50;;;;;;10628709;27;20517;-81
2023/08/11 18:52:11;;;;;;;4.40;4.10;;;24.70;97.40;;;;;;10597136;28;20238;-81
2023/08/11 18:57:13;;;;;;;4.80;4.40;;;24.70;97.60;;;;;;10584838;28;20200;-82
2023/08/11 19:02:17;;;;;;;4.43;4.13;;;24.60;98.10;;;;;;10584891;28;20224;-83
2023/08/11 19:07:19;;;;;;;4.97;4.57;;;24.60;98.20;;;;;;10586461;28;20196;-82
2023/08/11 19:12:21;;;;;;;4.77;4.27;;;24.40;98.20;;;;;;10585380;28;20220;-83
2023/08/11 19:17:25;;;;;;;4.70;4.30;;;24.30;98.40;;;;;;10583927;28;20196;-82
2023/08/11 19:22:27;;;;;;;4.50;3.83;;;24.20;98.30;;;;;;10585429;28;20258;-82
2023/08/11 19:27:29;;;;;;;5.70;5.20;;;24.20;98.30;;;;;;10585392;28;20210;-83
2023/08/11 19:32:33;;;;;;;7.50;6.90;;;24.10;98.60;;;;;;10586797;28;20243;-83
2023/08/11 19:37:35;;;;;;;5.60;5.03;;;24.00;98.60;;;;;;10586457;28;20290;-83
2023/08/11 19:42:37;;;;;;;5.20;4.70;;;23.90;98.80;;;;;;10583697;28;20661;-83
2023/08/11 19:47:40;;;;;;;4.60;4.30;;;23.80;98.80;;;;;;10590593;28;20216;-83
2023/08/11 19:52:42;;;;;;;5.90;5.43;;;23.80;98.80;;;;;;10584266;28;20243;-82
2023/08/11 19:57:44;;;;;;;6.57;5.97;;;23.70;98.80;;;;;;10574781;28;20256;-82
2023/08/11 20:02:48;;;;;;;7.97;6.83;;;23.70;98.80;;;;;;10556260;28;20224;-83
2023/08/11 20:07:50;;;;;;;7.50;6.80;;;23.60;99.00;;;;;;10554917;28;20200;-83
2023/08/11 20:12:52;;;;;;;8.03;7.33;;;23.50;99.10;;;;;;10553839;28;20232;-82
2023/08/11 20:17:55;;;;;;;8.60;7.80;;;23.50;99.10;;;;;;10555809;28;20188;-83
2023/08/11 20:22:58;;;;;;;6.97;6.47;;;23.50;99.20;;;;;;10549443;28;20212;-83
2023/08/11 20:28:00;;;;;;;6.43;5.90;;;23.40;99.40;;;;;;10551794;28;20230;-82
2023/08/11 20:33:04;;;;;;;5.67;5.17;;;23.40;99.70;;;;;;10552047;28;20319;-83
2023/08/11 20:38:06;;;;;;;6.07;5.57;;;23.30;99.60;;;;;;10555059;28;20203;-83
2023/08/11 20:43:08;;;;;;;5.73;5.20;;;23.30;99.80;;;;;;10554241;28;20650;-82
2023/08/11 20:48:12;;;;;;;6.07;5.50;;;23.30;99.90;;;;;;10557165;28;20207;-82
2023/08/11 20:53:14;;;;;;;6.10;5.33;;;23.20;99.90;;;;;;10541975;28;20215;-82
2023/08/11 20:58:16;;;;;;;5.63;5.13;;;23.20;99.90;;;;;;10550440;28;20227;-82
2023/08/11 21:03:19;;;;;;;5.50;5.00;;;23.10;99.90;;;;;;10550344;28;20216;-83
2023/08/11 21:08:21;;;;;;;6.77;5.37;;;23.10;99.90;;;;;;10552279;28;20200;-83
2023/08/11 21:13:24;;;;;;;6.93;5.00;;;23.00;99.90;;;;;;10551916;28;20217;-83
2023/08/11 21:18:27;;;;;;;5.60;4.77;;;23.00;99.90;;;;;;10551165;28;20200;-81
2023/08/11 21:23:29;;;;;;;5.40;4.90;;;23.00;99.90;;;;;;10549750;28;20224;-82
2023/08/11 21:28:31;;;;;;;6.40;5.90;;;22.90;99.90;;;;;;10550523;28;20257;-82
2023/08/11 21:33:35;;;;;;;5.83;5.37;;;22.90;99.90;;;;;;10551272;28;20208;-83
2023/08/11 21:38:37;;;;;;;7.20;6.50;;;22.80;99.90;;;;;;10551472;28;20209;-83
2023/08/11 21:43:39;;;;;;;7.53;6.90;;;22.80;99.90;;;;;;10550647;28;20212;-82
2023/08/11 21:48:43;;;;;;;6.57;5.90;;;22.80;99.90;;;;;;10550745;28;20200;-83
2023/08/11 21:53:45;;;;;;;6.30;5.80;;;22.70;99.90;;;;;;10549730;28;20217;-83
2023/08/11 21:58:47;;;;;;;6.50;6.00;;;22.70;99.90;;;;;;10550781;28;20313;-83
2023/08/11 22:03:51;;;;;;;5.87;5.40;;;22.70;99.90;;;;;;10563828;28;20231;-82
2023/08/11 22:08:53;;;;;;;5.90;5.30;;;22.70;99.90;;;;;;10547619;28;20546;-83
2023/08/11 22:13:55;;;;;;;6.37;5.87;;;22.70;99.90;;;;;;10550759;28;20258;-83
2023/08/11 22:18:59;;;;;;;4.63;4.23;;;22.60;99.90;;;;;;10549146;28;20200;-82
2023/08/11 22:24:01;;;;;;;6.20;5.60;;;22.60;99.90;;;;;;10550009;28;20244;-82
2023/08/11 22:29:03;;;;;;;6.10;5.60;;;22.60;99.90;;;;;;10549106;28;20201;-82
2023/08/11 22:34:07;;;;;;;6.93;6.33;;;22.50;99.90;;;;;;10544800;28;20318;-82
2023/08/11 22:39:09;;;;;;;6.27;5.33;;;22.50;99.90;;;;;;10542302;28;20258;-81
2023/08/11 22:44:11;;;;;;;5.83;5.43;;;22.40;99.90;;;;;;10544893;28;20220;-83
2023/08/11 22:49:14;;;;;;;5.60;5.10;;;22.40;99.90;;;;;;10539473;28;20694;-82
2023/08/11 22:54:16;;;;;;;6.90;5.57;;;22.40;99.90;;;;;;10536199;28;20219;-83
2023/08/11 22:59:20;;;;;;;5.07;4.77;;;22.40;99.90;;;;;;10537120;28;20196;-82
2023/08/11 23:04:23;;;;;;;5.50;5.00;;;22.30;99.90;;;;;;10550790;28;20228;-82
2023/08/11 23:09:26;;;;;;;5.20;4.83;;;22.30;99.90;;;;;;10540856;28;20219;-82
2023/08/11 23:14:28;;;;;;;5.47;5.07;;;22.30;99.90;;;;;;10546137;28;20200;-82
2023/08/11 23:19:32;;;;;;;4.97;4.67;;;22.20;99.90;;;;;;10547210;28;20224;-83
2023/08/11 23:24:34;;;;;;;5.20;4.70;;;22.20;99.90;;;;;;10549936;28;20243;-84
2023/08/11 23:29:36;;;;;;;5.40;4.90;;;22.10;99.90;;;;;;10547233;28;20274;-84
2023/08/11 23:34:39;;;;;;;5.00;4.70;;;22.10;99.90;;;;;;10557139;28;20200;-84
2023/08/11 23:39:42;;;;;;;4.73;4.43;;;22.10;99.90;;;;;;10552753;28;20232;-83
2023/08/11 23:44:44;;;;;;;5.20;4.80;;;22.00;99.90;;;;;;10553913;28;20212;-83
2023/08/11 23:49:47;;;;;;;10.70;5.40;;;22.00;99.90;;;;;;10553267;28;20698;-84
2023/08/11 23:54:52;;;;;;;5.50;5.10;;;22.00;99.90;;;;;;10554311;28;20246;-83
2023/08/11 23:59:54;;;;;;;6.17;5.33;;;21.90;99.90;;;;;;10553229;28;20223;-83
